Arthur, West Virginia
Current Conditions -  °F | °C
As of 2:55 PM on Tuesday 21 Oct 2014 (Local Time) from K8W2 Reporting Station
Overcast Overcast  
Wind Chill: 15°   Ceiling: 6000
Heat Index: 15°   Visibility: 5mi
Dew Point:   Wind: 7mph
Humidity: 66%   Direction: 340°NNW
Pressure: 29.83"   Gusts: NA
Location:  38.9337°N, 79.1435°W
Report Text: K8W2 211855Z AUTO 34006KT 5SM SCT050 OVC060 15/09 A2983 RMK AO1 P0002 T01500088
Loading
Personal Weather Stations






























Interactive Weather Map
Tropical Storm Tracking
New forecast layout! Learn more

10-Day Weather Forecast

Advertisements
Track Severe Weather on mobile